sensor_id;sensor_type;location;lat;lon;timestamp;P1;durP1;ratioP1;P2;durP2;ratioP2
5257;SDS011;2651;51.594;9.928;2022-12-13T00:00:22;22.88;;;15.98;;
5257;SDS011;2651;51.594;9.928;2022-12-13T00:01:24;24.23;;;17.42;;
5257;SDS011;2651;51.594;9.928;2022-12-13T00:02:27;24.77;;;17.77;;
5257;SDS011;2651;51.594;9.928;2022-12-13T00:03:28;25.40;;;17.17;;
5257;SDS011;2651;51.594;9.928;2022-12-13T00:04:31;25.45;;;16.60;;
5257;SDS011;2651;51.594;9.928;2022-12-13T00:05:32;27.58;;;18.52;;
5257;SDS011;2651;51.594;9.928;2022-12-13T00:06:34;27.38;;;18.05;;
5257;SDS011;2651;51.594;9.928;2022-12-13T00:07:37;25.98;;;17.88;;
5257;SDS011;2651;51.594;9.928;2022-12-13T00:08:39;27.17;;;16.65;;
5257;SDS011;2651;51.594;9.928;2022-12-13T00:09:41;24.58;;;17.40;;
5257;SDS011;2651;51.594;9.928;2022-12-13T00:10:43;20.65;;;16.15;;
5257;SDS011;2651;51.594;9.928;2022-12-13T00:11:45;21.48;;;15.32;;
5257;SDS011;2651;51.594;9.928;2022-12-13T00:12:47;24.10;;;15.88;;
5257;SDS011;2651;51.594;9.928;2022-12-13T00:13:49;20.58;;;14.95;;
5257;SDS011;2651;51.594;9.928;2022-12-13T00:14:51;19.05;;;14.30;;
5257;SDS011;2651;51.594;9.928;2022-12-13T00:15:57;21.73;;;15.38;;
5257;SDS011;2651;51.594;9.928;2022-12-13T00:16:59;18.42;;;14.32;;
5257;SDS011;2651;51.594;9.928;2022-12-13T00:18:01;20.23;;;14.95;;
5257;SDS011;2651;51.594;9.928;2022-12-13T00:19:03;19.90;;;15.10;;
5257;SDS011;2651;51.594;9.928;2022-12-13T00:20:05;23.65;;;16.08;;
5257;SDS011;2651;51.594;9.928;2022-12-13T00:21:07;20.80;;;15.13;;
5257;SDS011;2651;51.594;9.928;2022-12-13T00:22:11;18.58;;;13.98;;
5257;SDS011;2651;51.594;9.928;2022-12-13T00:23:13;19.50;;;14.25;;
5257;SDS011;2651;51.594;9.928;2022-12-13T00:24:15;19.35;;;14.20;;
5257;SDS011;2651;51.594;9.928;2022-12-13T00:25:17;19.77;;;15.20;;
5257;SDS011;2651;51.594;9.928;2022-12-13T00:26:22;22.00;;;16.13;;
5257;SDS011;2651;51.594;9.928;2022-12-13T00:27:25;23.20;;;15.50;;
5257;SDS011;2651;51.594;9.928;2022-12-13T00:28:26;21.05;;;16.05;;
5257;SDS011;2651;51.594;9.928;2022-12-13T00:29:28;21.10;;;15.82;;
5257;SDS011;2651;51.594;9.928;2022-12-13T00:30:30;23.08;;;16.45;;
5257;SDS011;2651;51.594;9.928;2022-12-13T00:31:32;24.77;;;16.88;;
5257;SDS011;2651;51.594;9.928;2022-12-13T00:32:54;22.15;;;16.45;;
5257;SDS011;2651;51.594;9.928;2022-12-13T00:33:57;21.42;;;16.33;;
5257;SDS011;2651;51.594;9.928;2022-12-13T00:34:59;23.15;;;16.45;;
5257;SDS011;2651;51.594;9.928;2022-12-13T00:36:02;22.00;;;16.40;;
5257;SDS011;2651;51.594;9.928;2022-12-13T00:37:04;23.80;;;16.42;;
5257;SDS011;2651;51.594;9.928;2022-12-13T00:38:06;26.60;;;17.33;;
5257;SDS011;2651;51.594;9.928;2022-12-13T00:39:09;21.58;;;16.08;;
5257;SDS011;2651;51.594;9.928;2022-12-13T00:40:14;22.67;;;15.65;;
5257;SDS011;2651;51.594;9.928;2022-12-13T00:41:16;21.35;;;15.85;;
5257;SDS011;2651;51.594;9.928;2022-12-13T00:42:19;20.70;;;16.35;;
5257;SDS011;2651;51.594;9.928;2022-12-13T00:43:20;20.30;;;15.38;;
5257;SDS011;2651;51.594;9.928;2022-12-13T00:44:22;21.65;;;16.13;;
5257;SDS011;2651;51.594;9.928;2022-12-13T00:45:24;27.35;;;17.63;;
5257;SDS011;2651;51.594;9.928;2022-12-13T00:46:26;23.52;;;16.30;;
5257;SDS011;2651;51.594;9.928;2022-12-13T00:47:29;20.50;;;15.95;;
5257;SDS011;2651;51.594;9.928;2022-12-13T00:48:31;21.40;;;15.18;;
5257;SDS011;2651;51.594;9.928;2022-12-13T00:49:33;22.25;;;15.95;;
5257;SDS011;2651;51.594;9.928;2022-12-13T00:50:36;20.38;;;14.90;;
5257;SDS011;2651;51.594;9.928;2022-12-13T00:51:38;22.48;;;15.95;;
5257;SDS011;2651;51.594;9.928;2022-12-13T00:52:40;21.15;;;15.48;;
5257;SDS011;2651;51.594;9.928;2022-12-13T00:53:42;20.25;;;14.98;;
5257;SDS011;2651;51.594;9.928;2022-12-13T00:54:44;20.88;;;15.02;;
5257;SDS011;2651;51.594;9.928;2022-12-13T00:55:46;21.65;;;15.93;;
5257;SDS011;2651;51.594;9.928;2022-12-13T00:56:48;21.27;;;15.13;;
5257;SDS011;2651;51.594;9.928;2022-12-13T00:57:51;18.80;;;14.25;;
5257;SDS011;2651;51.594;9.928;2022-12-13T00:58:53;19.02;;;13.43;;
5257;SDS011;2651;51.594;9.928;2022-12-13T00:59:55;16.98;;;13.30;;
5257;SDS011;2651;51.594;9.928;2022-12-13T01:01:03;17.15;;;13.88;;
5257;SDS011;2651;51.594;9.928;2022-12-13T01:02:06;19.48;;;15.07;;
5257;SDS011;2651;51.594;9.928;2022-12-13T01:03:08;16.15;;;13.40;;
5257;SDS011;2651;51.594;9.928;2022-12-13T01:04:20;19.52;;;14.57;;
5257;SDS011;2651;51.594;9.928;2022-12-13T01:05:22;17.90;;;13.70;;
5257;SDS011;2651;51.594;9.928;2022-12-13T01:06:44;20.63;;;13.93;;
5257;SDS011;2651;51.594;9.928;2022-12-13T01:07:46;18.75;;;13.93;;
5257;SDS011;2651;51.594;9.928;2022-12-13T01:08:48;39.53;;;14.75;;
5257;SDS011;2651;51.594;9.928;2022-12-13T01:09:50;18.25;;;14.02;;
5257;SDS011;2651;51.594;9.928;2022-12-13T01:10:52;19.60;;;14.95;;
5257;SDS011;2651;51.594;9.928;2022-12-13T01:11:58;21.40;;;15.15;;
5257;SDS011;2651;51.594;9.928;2022-12-13T01:13:01;18.73;;;14.25;;
5257;SDS011;2651;51.594;9.928;2022-12-13T01:14:02;19.40;;;15.32;;
5257;SDS011;2651;51.594;9.928;2022-12-13T01:15:05;21.25;;;15.52;;
5257;SDS011;2651;51.594;9.928;2022-12-13T01:16:08;19.80;;;14.40;;
5257;SDS011;2651;51.594;9.928;2022-12-13T01:17:10;21.38;;;15.05;;
5257;SDS011;2651;51.594;9.928;2022-12-13T01:18:12;19.52;;;14.50;;
5257;SDS011;2651;51.594;9.928;2022-12-13T01:19:18;21.52;;;15.98;;
5257;SDS011;2651;51.594;9.928;2022-12-13T01:20:19;19.23;;;14.93;;
5257;SDS011;2651;51.594;9.928;2022-12-13T01:21:21;19.67;;;14.65;;
5257;SDS011;2651;51.594;9.928;2022-12-13T01:22:23;22.58;;;14.40;;
5257;SDS011;2651;51.594;9.928;2022-12-13T01:23:26;21.92;;;15.13;;
5257;SDS011;2651;51.594;9.928;2022-12-13T01:24:28;18.60;;;13.88;;
5257;SDS011;2651;51.594;9.928;2022-12-13T01:25:31;20.42;;;15.38;;
5257;SDS011;2651;51.594;9.928;2022-12-13T01:26:33;21.67;;;14.70;;
5257;SDS011;2651;51.594;9.928;2022-12-13T01:27:35;19.92;;;15.13;;
5257;SDS011;2651;51.594;9.928;2022-12-13T01:28:36;19.42;;;15.32;;
5257;SDS011;2651;51.594;9.928;2022-12-13T01:29:38;22.05;;;15.52;;
5257;SDS011;2651;51.594;9.928;2022-12-13T01:30:40;25.80;;;16.42;;
5257;SDS011;2651;51.594;9.928;2022-12-13T01:31:42;21.75;;;15.52;;
5257;SDS011;2651;51.594;9.928;2022-12-13T01:32:43;20.55;;;15.63;;
5257;SDS011;2651;51.594;9.928;2022-12-13T01:33:46;23.50;;;16.13;;
5257;SDS011;2651;51.594;9.928;2022-12-13T01:34:48;21.67;;;16.35;;
5257;SDS011;2651;51.594;9.928;2022-12-13T01:35:49;22.50;;;15.80;;
5257;SDS011;2651;51.594;9.928;2022-12-13T01:36:51;27.25;;;15.95;;
5257;SDS011;2651;51.594;9.928;2022-12-13T01:37:58;21.75;;;16.05;;
5257;SDS011;2651;51.594;9.928;2022-12-13T01:39:00;22.83;;;14.90;;
5257;SDS011;2651;51.594;9.928;2022-12-13T01:40:15;23.38;;;15.82;;
5257;SDS011;2651;51.594;9.928;2022-12-13T01:41:17;21.98;;;16.00;;
5257;SDS011;2651;51.594;9.928;2022-12-13T01:42:27;25.38;;;16.38;;
5257;SDS011;2651;51.594;9.928;2022-12-13T01:44:56;28.45;;;16.80;;
5257;SDS011;2651;51.594;9.928;2022-12-13T01:46:01;20.55;;;15.30;;
5257;SDS011;2651;51.594;9.928;2022-12-13T01:47:03;22.15;;;14.65;;
5257;SDS011;2651;51.594;9.928;2022-12-13T01:48:06;20.95;;;15.48;;
5257;SDS011;2651;51.594;9.928;2022-12-13T01:49:19;22.33;;;15.90;;
5257;SDS011;2651;51.594;9.928;2022-12-13T01:50:22;19.67;;;15.15;;
5257;SDS011;2651;51.594;9.928;2022-12-13T01:51:32;22.00;;;15.30;;
5257;SDS011;2651;51.594;9.928;2022-12-13T01:52:34;20.13;;;16.13;;
5257;SDS011;2651;51.594;9.928;2022-12-13T01:53:36;23.67;;;16.00;;
5257;SDS011;2651;51.594;9.928;2022-12-13T01:54:42;21.10;;;15.35;;
5257;SDS011;2651;51.594;9.928;2022-12-13T01:55:49;21.77;;;16.48;;
5257;SDS011;2651;51.594;9.928;2022-12-13T01:56:55;21.85;;;15.85;;
5257;SDS011;2651;51.594;9.928;2022-12-13T01:58:01;19.55;;;15.52;;
5257;SDS011;2651;51.594;9.928;2022-12-13T01:59:05;23.63;;;15.65;;
5257;SDS011;2651;51.594;9.928;2022-12-13T02:00:09;23.10;;;16.45;;
5257;SDS011;2651;51.594;9.928;2022-12-13T02:01:11;19.42;;;14.88;;
5257;SDS011;2651;51.594;9.928;2022-12-13T02:02:13;21.33;;;15.57;;
5257;SDS011;2651;51.594;9.928;2022-12-13T02:03:16;21.55;;;15.75;;
5257;SDS011;2651;51.594;9.928;2022-12-13T02:04:28;17.85;;;13.95;;
5257;SDS011;2651;51.594;9.928;2022-12-13T02:06:51;22.30;;;15.80;;
5257;SDS011;2651;51.594;9.928;2022-12-13T02:07:53;24.60;;;16.10;;
5257;SDS011;2651;51.594;9.928;2022-12-13T02:08:58;22.05;;;16.20;;
5257;SDS011;2651;51.594;9.928;2022-12-13T02:10:01;22.52;;;16.15;;
5257;SDS011;2651;51.594;9.928;2022-12-13T02:11:05;19.02;;;15.00;;
5257;SDS011;2651;51.594;9.928;2022-12-13T02:12:07;21.27;;;15.25;;
5257;SDS011;2651;51.594;9.928;2022-12-13T02:13:09;19.35;;;15.18;;
5257;SDS011;2651;51.594;9.928;2022-12-13T02:14:10;21.25;;;15.77;;
5257;SDS011;2651;51.594;9.928;2022-12-13T02:15:13;24.80;;;16.58;;
5257;SDS011;2651;51.594;9.928;2022-12-13T02:20:28;24.27;;;16.20;;
5257;SDS011;2651;51.594;9.928;2022-12-13T02:22:02;18.83;;;14.27;;
5257;SDS011;2651;51.594;9.928;2022-12-13T02:28:19;22.67;;;15.63;;
5257;SDS011;2651;51.594;9.928;2022-12-13T02:31:05;22.58;;;15.10;;
5257;SDS011;2651;51.594;9.928;2022-12-13T02:35:06;18.40;;;14.25;;
5257;SDS011;2651;51.594;9.928;2022-12-13T02:36:20;23.00;;;15.63;;
5257;SDS011;2651;51.594;9.928;2022-12-13T02:37:39;19.38;;;14.65;;
5257;SDS011;2651;51.594;9.928;2022-12-13T02:39:58;23.00;;;15.40;;
5257;SDS011;2651;51.594;9.928;2022-12-13T02:41:49;20.38;;;14.80;;
5257;SDS011;2651;51.594;9.928;2022-12-13T02:44:09;20.67;;;14.75;;
5257;SDS011;2651;51.594;9.928;2022-12-13T02:45:26;19.95;;;14.63;;
5257;SDS011;2651;51.594;9.928;2022-12-13T02:46:35;17.48;;;13.80;;
5257;SDS011;2651;51.594;9.928;2022-12-13T02:47:41;22.63;;;15.45;;
5257;SDS011;2651;51.594;9.928;2022-12-13T02:48:44;19.27;;;14.95;;
5257;SDS011;2651;51.594;9.928;2022-12-13T02:49:49;20.90;;;15.48;;
5257;SDS011;2651;51.594;9.928;2022-12-13T02:50:54;22.05;;;16.58;;
5257;SDS011;2651;51.594;9.928;2022-12-13T02:51:58;19.30;;;14.70;;
5257;SDS011;2651;51.594;9.928;2022-12-13T02:53:01;24.73;;;15.65;;
5257;SDS011;2651;51.594;9.928;2022-12-13T02:54:04;18.25;;;14.75;;
5257;SDS011;2651;51.594;9.928;2022-12-13T02:55:07;19.85;;;15.05;;
5257;SDS011;2651;51.594;9.928;2022-12-13T02:56:12;19.90;;;15.40;;
5257;SDS011;2651;51.594;9.928;2022-12-13T02:58:41;23.00;;;16.52;;
5257;SDS011;2651;51.594;9.928;2022-12-13T02:59:49;22.23;;;15.82;;
5257;SDS011;2651;51.594;9.928;2022-12-13T03:05:15;21.63;;;14.30;;
5257;SDS011;2651;51.594;9.928;2022-12-13T03:10:37;19.77;;;14.95;;
5257;SDS011;2651;51.594;9.928;2022-12-13T03:12:08;19.58;;;15.45;;
5257;SDS011;2651;51.594;9.928;2022-12-13T03:13:49;21.52;;;15.20;;
5257;SDS011;2651;51.594;9.928;2022-12-13T03:16:37;21.55;;;15.05;;
5257;SDS011;2651;51.594;9.928;2022-12-13T03:17:46;21.30;;;15.38;;
5257;SDS011;2651;51.594;9.928;2022-12-13T03:18:57;19.38;;;14.38;;
5257;SDS011;2651;51.594;9.928;2022-12-13T03:20:01;23.67;;;16.05;;
5257;SDS011;2651;51.594;9.928;2022-12-13T03:21:13;21.55;;;15.88;;
5257;SDS011;2651;51.594;9.928;2022-12-13T03:22:15;22.30;;;15.50;;
5257;SDS011;2651;51.594;9.928;2022-12-13T03:23:17;19.65;;;15.02;;
5257;SDS011;2651;51.594;9.928;2022-12-13T03:24:20;19.38;;;15.13;;
5257;SDS011;2651;51.594;9.928;2022-12-13T03:25:24;19.65;;;13.90;;
5257;SDS011;2651;51.594;9.928;2022-12-13T03:26:32;19.17;;;14.15;;
5257;SDS011;2651;51.594;9.928;2022-12-13T03:27:35;19.17;;;14.38;;
5257;SDS011;2651;51.594;9.928;2022-12-13T03:28:36;22.55;;;14.68;;
5257;SDS011;2651;51.594;9.928;2022-12-13T03:29:39;21.40;;;14.38;;
5257;SDS011;2651;51.594;9.928;2022-12-13T03:30:40;18.05;;;14.43;;
5257;SDS011;2651;51.594;9.928;2022-12-13T03:31:42;20.10;;;15.02;;
5257;SDS011;2651;51.594;9.928;2022-12-13T03:32:44;17.67;;;14.43;;
5257;SDS011;2651;51.594;9.928;2022-12-13T03:33:46;19.25;;;14.77;;
5257;SDS011;2651;51.594;9.928;2022-12-13T03:34:47;21.80;;;15.38;;
5257;SDS011;2651;51.594;9.928;2022-12-13T03:36:00;24.23;;;15.93;;
5257;SDS011;2651;51.594;9.928;2022-12-13T03:37:03;18.65;;;13.80;;
5257;SDS011;2651;51.594;9.928;2022-12-13T03:38:05;19.42;;;14.70;;
5257;SDS011;2651;51.594;9.928;2022-12-13T03:39:06;21.20;;;15.30;;
5257;SDS011;2651;51.594;9.928;2022-12-13T03:40:08;19.60;;;15.07;;
5257;SDS011;2651;51.594;9.928;2022-12-13T03:41:12;19.23;;;14.88;;
5257;SDS011;2651;51.594;9.928;2022-12-13T03:42:15;20.08;;;14.93;;
5257;SDS011;2651;51.594;9.928;2022-12-13T03:43:18;23.27;;;15.40;;
5257;SDS011;2651;51.594;9.928;2022-12-13T03:44:22;21.13;;;14.88;;
5257;SDS011;2651;51.594;9.928;2022-12-13T03:45:31;19.02;;;14.57;;
5257;SDS011;2651;51.594;9.928;2022-12-13T03:46:33;19.23;;;14.60;;
5257;SDS011;2651;51.594;9.928;2022-12-13T03:47:35;19.35;;;13.32;;
5257;SDS011;2651;51.594;9.928;2022-12-13T03:48:36;18.92;;;14.18;;
5257;SDS011;2651;51.594;9.928;2022-12-13T03:49:38;18.13;;;13.52;;
5257;SDS011;2651;51.594;9.928;2022-12-13T03:50:40;17.27;;;13.82;;
5257;SDS011;2651;51.594;9.928;2022-12-13T03:51:42;19.23;;;12.90;;
5257;SDS011;2651;51.594;9.928;2022-12-13T03:52:43;18.38;;;13.45;;
5257;SDS011;2651;51.594;9.928;2022-12-13T03:53:47;20.23;;;13.38;;
5257;SDS011;2651;51.594;9.928;2022-12-13T03:54:49;17.63;;;14.18;;
5257;SDS011;2651;51.594;9.928;2022-12-13T03:55:50;21.05;;;13.98;;
5257;SDS011;2651;51.594;9.928;2022-12-13T03:56:52;19.23;;;13.35;;
5257;SDS011;2651;51.594;9.928;2022-12-13T03:57:54;16.80;;;13.00;;
5257;SDS011;2651;51.594;9.928;2022-12-13T03:58:56;15.57;;;12.73;;
5257;SDS011;2651;51.594;9.928;2022-12-13T03:59:58;16.92;;;13.77;;
5257;SDS011;2651;51.594;9.928;2022-12-13T04:00:59;17.50;;;13.02;;
5257;SDS011;2651;51.594;9.928;2022-12-13T04:02:01;14.32;;;12.13;;
5257;SDS011;2651;51.594;9.928;2022-12-13T04:03:03;17.63;;;13.23;;
5257;SDS011;2651;51.594;9.928;2022-12-13T04:04:05;18.20;;;12.95;;
5257;SDS011;2651;51.594;9.928;2022-12-13T04:05:06;15.98;;;12.75;;
5257;SDS011;2651;51.594;9.928;2022-12-13T04:06:08;17.88;;;13.50;;
5257;SDS011;2651;51.594;9.928;2022-12-13T04:07:11;17.83;;;13.55;;
5257;SDS011;2651;51.594;9.928;2022-12-13T04:08:22;16.70;;;13.07;;
5257;SDS011;2651;51.594;9.928;2022-12-13T04:09:24;14.75;;;11.57;;
5257;SDS011;2651;51.594;9.928;2022-12-13T04:10:26;16.27;;;12.80;;
5257;SDS011;2651;51.594;9.928;2022-12-13T04:11:28;18.25;;;12.55;;
5257;SDS011;2651;51.594;9.928;2022-12-13T04:12:48;18.77;;;13.02;;
5257;SDS011;2651;51.594;9.928;2022-12-13T04:14:11;18.70;;;12.80;;
5257;SDS011;2651;51.594;9.928;2022-12-13T04:15:23;19.25;;;13.82;;
5257;SDS011;2651;51.594;9.928;2022-12-13T04:16:24;22.40;;;14.18;;
5257;SDS011;2651;51.594;9.928;2022-12-13T04:17:26;22.25;;;14.98;;
5257;SDS011;2651;51.594;9.928;2022-12-13T04:18:28;17.85;;;13.38;;
5257;SDS011;2651;51.594;9.928;2022-12-13T04:19:29;17.75;;;13.05;;
5257;SDS011;2651;51.594;9.928;2022-12-13T04:20:31;19.33;;;14.27;;
5257;SDS011;2651;51.594;9.928;2022-12-13T04:21:33;21.10;;;14.05;;
5257;SDS011;2651;51.594;9.928;2022-12-13T04:22:35;19.73;;;13.35;;
5257;SDS011;2651;51.594;9.928;2022-12-13T04:23:36;19.85;;;14.10;;
5257;SDS011;2651;51.594;9.928;2022-12-13T04:24:38;21.63;;;13.40;;
5257;SDS011;2651;51.594;9.928;2022-12-13T04:25:40;17.67;;;13.73;;
5257;SDS011;2651;51.594;9.928;2022-12-13T04:26:41;19.52;;;14.10;;
5257;SDS011;2651;51.594;9.928;2022-12-13T04:27:43;20.00;;;13.93;;
5257;SDS011;2651;51.594;9.928;2022-12-13T04:28:46;21.15;;;13.63;;
5257;SDS011;2651;51.594;9.928;2022-12-13T04:29:54;22.65;;;14.95;;
5257;SDS011;2651;51.594;9.928;2022-12-13T04:30:56;22.60;;;14.65;;
5257;SDS011;2651;51.594;9.928;2022-12-13T04:31:58;19.50;;;13.73;;
5257;SDS011;2651;51.594;9.928;2022-12-13T04:33:00;20.25;;;14.25;;
5257;SDS011;2651;51.594;9.928;2022-12-13T04:34:02;18.20;;;13.52;;
5257;SDS011;2651;51.594;9.928;2022-12-13T04:35:03;17.63;;;13.10;;
5257;SDS011;2651;51.594;9.928;2022-12-13T04:36:05;18.48;;;13.07;;
5257;SDS011;2651;51.594;9.928;2022-12-13T04:37:07;20.40;;;14.95;;
5257;SDS011;2651;51.594;9.928;2022-12-13T04:38:09;17.88;;;13.30;;
5257;SDS011;2651;51.594;9.928;2022-12-13T04:39:11;17.35;;;12.75;;
5257;SDS011;2651;51.594;9.928;2022-12-13T04:40:23;19.55;;;13.07;;
5257;SDS011;2651;51.594;9.928;2022-12-13T04:41:24;17.30;;;13.15;;
5257;SDS011;2651;51.594;9.928;2022-12-13T04:42:34;17.45;;;13.25;;
5257;SDS011;2651;51.594;9.928;2022-12-13T04:43:36;15.75;;;12.70;;
5257;SDS011;2651;51.594;9.928;2022-12-13T04:44:37;18.02;;;13.77;;
5257;SDS011;2651;51.594;9.928;2022-12-13T04:45:44;16.98;;;12.85;;
5257;SDS011;2651;51.594;9.928;2022-12-13T04:46:46;18.65;;;13.55;;
5257;SDS011;2651;51.594;9.928;2022-12-13T04:47:48;17.30;;;12.98;;
5257;SDS011;2651;51.594;9.928;2022-12-13T04:48:50;17.17;;;13.00;;
5257;SDS011;2651;51.594;9.928;2022-12-13T04:49:51;19.92;;;12.75;;
5257;SDS011;2651;51.594;9.928;2022-12-13T04:50:53;16.65;;;12.20;;
5257;SDS011;2651;51.594;9.928;2022-12-13T04:52:01;17.25;;;13.20;;
5257;SDS011;2651;51.594;9.928;2022-12-13T04:53:03;17.73;;;12.40;;
5257;SDS011;2651;51.594;9.928;2022-12-13T04:54:05;16.70;;;12.60;;
5257;SDS011;2651;51.594;9.928;2022-12-13T04:55:24;18.67;;;13.15;;
5257;SDS011;2651;51.594;9.928;2022-12-13T04:56:26;18.55;;;12.75;;
5257;SDS011;2651;51.594;9.928;2022-12-13T04:57:28;18.10;;;13.55;;
5257;SDS011;2651;51.594;9.928;2022-12-13T04:58:29;17.15;;;12.93;;
5257;SDS011;2651;51.594;9.928;2022-12-13T04:59:32;17.20;;;13.63;;
5257;SDS011;2651;51.594;9.928;2022-12-13T05:00:34;17.80;;;13.63;;
5257;SDS011;2651;51.594;9.928;2022-12-13T05:01:35;17.67;;;14.13;;
5257;SDS011;2651;51.594;9.928;2022-12-13T05:02:37;18.73;;;14.25;;
5257;SDS011;2651;51.594;9.928;2022-12-13T05:03:41;18.45;;;13.95;;
5257;SDS011;2651;51.594;9.928;2022-12-13T05:04:43;18.55;;;13.23;;
5257;SDS011;2651;51.594;9.928;2022-12-13T05:05:53;18.80;;;13.43;;
5257;SDS011;2651;51.594;9.928;2022-12-13T05:06:55;18.95;;;13.88;;
5257;SDS011;2651;51.594;9.928;2022-12-13T05:07:57;19.55;;;14.32;;
5257;SDS011;2651;51.594;9.928;2022-12-13T05:08:59;19.27;;;13.45;;
5257;SDS011;2651;51.594;9.928;2022-12-13T05:10:02;21.02;;;13.68;;
5257;SDS011;2651;51.594;9.928;2022-12-13T05:11:05;17.95;;;13.15;;
5257;SDS011;2651;51.594;9.928;2022-12-13T05:12:07;18.45;;;13.50;;
5257;SDS011;2651;51.594;9.928;2022-12-13T05:13:23;18.48;;;14.10;;
5257;SDS011;2651;51.594;9.928;2022-12-13T05:14:25;20.48;;;14.45;;
5257;SDS011;2651;51.594;9.928;2022-12-13T05:15:26;20.50;;;14.32;;
5257;SDS011;2651;51.594;9.928;2022-12-13T05:16:30;22.58;;;14.68;;
5257;SDS011;2651;51.594;9.928;2022-12-13T05:17:32;21.02;;;14.63;;
5257;SDS011;2651;51.594;9.928;2022-12-13T05:18:34;21.77;;;14.85;;
5257;SDS011;2651;51.594;9.928;2022-12-13T05:19:36;22.05;;;15.52;;
5257;SDS011;2651;51.594;9.928;2022-12-13T05:20:38;21.58;;;14.57;;
5257;SDS011;2651;51.594;9.928;2022-12-13T05:21:40;22.08;;;14.95;;
5257;SDS011;2651;51.594;9.928;2022-12-13T05:22:41;21.08;;;15.10;;
5257;SDS011;2651;51.594;9.928;2022-12-13T05:23:44;36.35;;;23.77;;
5257;SDS011;2651;51.594;9.928;2022-12-13T05:24:46;23.63;;;16.45;;
5257;SDS011;2651;51.594;9.928;2022-12-13T05:25:48;38.10;;;23.13;;
5257;SDS011;2651;51.594;9.928;2022-12-13T05:26:51;30.67;;;21.20;;
5257;SDS011;2651;51.594;9.928;2022-12-13T05:27:53;24.33;;;15.73;;
5257;SDS011;2651;51.594;9.928;2022-12-13T05:28:57;21.35;;;15.02;;
5257;SDS011;2651;51.594;9.928;2022-12-13T05:29:59;19.35;;;14.23;;
5257;SDS011;2651;51.594;9.928;2022-12-13T05:31:05;22.05;;;14.82;;
5257;SDS011;2651;51.594;9.928;2022-12-13T05:32:24;18.88;;;13.45;;
5257;SDS011;2651;51.594;9.928;2022-12-13T05:33:25;18.38;;;13.77;;
5257;SDS011;2651;51.594;9.928;2022-12-13T05:34:27;28.13;;;14.40;;
5257;SDS011;2651;51.594;9.928;2022-12-13T05:35:29;22.27;;;14.23;;
5257;SDS011;2651;51.594;9.928;2022-12-13T05:36:31;21.70;;;14.88;;
5257;SDS011;2651;51.594;9.928;2022-12-13T05:37:33;18.20;;;13.75;;
5257;SDS011;2651;51.594;9.928;2022-12-13T05:38:35;23.13;;;14.50;;
5257;SDS011;2651;51.594;9.928;2022-12-13T05:39:36;17.92;;;13.50;;
5257;SDS011;2651;51.594;9.928;2022-12-13T05:40:38;18.65;;;14.60;;
5257;SDS011;2651;51.594;9.928;2022-12-13T05:41:41;22.88;;;15.68;;
5257;SDS011;2651;51.594;9.928;2022-12-13T05:42:43;25.35;;;16.50;;
5257;SDS011;2651;51.594;9.928;2022-12-13T05:43:44;20.80;;;15.02;;
5257;SDS011;2651;51.594;9.928;2022-12-13T05:44:46;22.95;;;16.88;;
5257;SDS011;2651;51.594;9.928;2022-12-13T05:45:48;27.63;;;17.52;;
5257;SDS011;2651;51.594;9.928;2022-12-13T05:46:50;25.50;;;17.15;;
5257;SDS011;2651;51.594;9.928;2022-12-13T05:47:52;34.17;;;22.70;;
5257;SDS011;2651;51.594;9.928;2022-12-13T05:48:54;29.98;;;17.92;;
5257;SDS011;2651;51.594;9.928;2022-12-13T05:49:55;19.73;;;14.98;;
5257;SDS011;2651;51.594;9.928;2022-12-13T05:50:57;19.70;;;14.02;;
5257;SDS011;2651;51.594;9.928;2022-12-13T05:52:20;19.50;;;14.10;;
5257;SDS011;2651;51.594;9.928;2022-12-13T05:53:31;21.40;;;14.32;;
5257;SDS011;2651;51.594;9.928;2022-12-13T05:54:32;18.73;;;14.02;;
5257;SDS011;2651;51.594;9.928;2022-12-13T05:55:35;17.80;;;13.30;;
5257;SDS011;2651;51.594;9.928;2022-12-13T05:56:38;16.65;;;13.15;;
5257;SDS011;2651;51.594;9.928;2022-12-13T05:57:39;18.38;;;12.95;;
5257;SDS011;2651;51.594;9.928;2022-12-13T05:58:50;19.15;;;13.45;;
5257;SDS011;2651;51.594;9.928;2022-12-13T05:59:54;22.30;;;15.65;;
5257;SDS011;2651;51.594;9.928;2022-12-13T06:01:02;20.80;;;14.52;;
5257;SDS011;2651;51.594;9.928;2022-12-13T06:02:06;21.80;;;13.95;;
5257;SDS011;2651;51.594;9.928;2022-12-13T06:03:08;20.20;;;14.80;;
5257;SDS011;2651;51.594;9.928;2022-12-13T06:04:11;21.58;;;14.25;;
5257;SDS011;2651;51.594;9.928;2022-12-13T06:05:23;20.90;;;14.30;;
5257;SDS011;2651;51.594;9.928;2022-12-13T06:06:25;19.95;;;14.00;;
5257;SDS011;2651;51.594;9.928;2022-12-13T06:07:26;20.40;;;14.55;;
5257;SDS011;2651;51.594;9.928;2022-12-13T06:08:28;19.58;;;14.18;;
5257;SDS011;2651;51.594;9.928;2022-12-13T06:09:31;18.40;;;14.60;;
5257;SDS011;2651;51.594;9.928;2022-12-13T06:10:40;19.50;;;14.60;;
5257;SDS011;2651;51.594;9.928;2022-12-13T06:11:41;21.00;;;13.68;;
5257;SDS011;2651;51.594;9.928;2022-12-13T06:12:43;23.73;;;15.45;;
5257;SDS011;2651;51.594;9.928;2022-12-13T06:14:00;24.95;;;15.48;;
5257;SDS011;2651;51.594;9.928;2022-12-13T06:15:02;22.00;;;14.85;;
5257;SDS011;2651;51.594;9.928;2022-12-13T06:16:22;20.30;;;14.55;;
5257;SDS011;2651;51.594;9.928;2022-12-13T06:17:24;28.13;;;16.05;;
5257;SDS011;2651;51.594;9.928;2022-12-13T06:18:30;20.73;;;14.70;;
5257;SDS011;2651;51.594;9.928;2022-12-13T06:19:33;22.63;;;14.68;;
5257;SDS011;2651;51.594;9.928;2022-12-13T06:20:35;21.63;;;14.63;;
5257;SDS011;2651;51.594;9.928;2022-12-13T06:21:37;22.70;;;16.40;;
5257;SDS011;2651;51.594;9.928;2022-12-13T06:22:45;24.13;;;16.60;;
5257;SDS011;2651;51.594;9.928;2022-12-13T06:23:48;21.10;;;14.77;;
5257;SDS011;2651;51.594;9.928;2022-12-13T06:24:49;21.92;;;14.88;;
5257;SDS011;2651;51.594;9.928;2022-12-13T06:25:51;20.42;;;14.68;;
5257;SDS011;2651;51.594;9.928;2022-12-13T06:26:53;18.05;;;13.65;;
5257;SDS011;2651;51.594;9.928;2022-12-13T06:27:54;16.75;;;13.50;;
5257;SDS011;2651;51.594;9.928;2022-12-13T06:28:56;22.17;;;15.32;;
5257;SDS011;2651;51.594;9.928;2022-12-13T06:29:57;19.70;;;14.27;;
5257;SDS011;2651;51.594;9.928;2022-12-13T06:31:03;20.17;;;14.35;;
5257;SDS011;2651;51.594;9.928;2022-12-13T06:32:05;21.38;;;14.25;;
5257;SDS011;2651;51.594;9.928;2022-12-13T06:33:07;19.52;;;14.68;;
5257;SDS011;2651;51.594;9.928;2022-12-13T06:34:13;18.45;;;14.18;;
5257;SDS011;2651;51.594;9.928;2022-12-13T06:35:15;20.27;;;14.90;;
5257;SDS011;2651;51.594;9.928;2022-12-13T06:36:30;21.10;;;14.13;;
5257;SDS011;2651;51.594;9.928;2022-12-13T06:37:31;17.95;;;13.57;;
5257;SDS011;2651;51.594;9.928;2022-12-13T06:38:33;18.00;;;14.02;;
5257;SDS011;2651;51.594;9.928;2022-12-13T06:39:43;16.92;;;13.35;;
5257;SDS011;2651;51.594;9.928;2022-12-13T06:40:45;19.23;;;13.77;;
5257;SDS011;2651;51.594;9.928;2022-12-13T06:41:47;16.88;;;13.18;;
5257;SDS011;2651;51.594;9.928;2022-12-13T06:42:49;20.15;;;13.38;;
5257;SDS011;2651;51.594;9.928;2022-12-13T06:43:51;17.42;;;13.18;;
5257;SDS011;2651;51.594;9.928;2022-12-13T06:44:53;20.40;;;13.75;;
5257;SDS011;2651;51.594;9.928;2022-12-13T06:45:56;19.98;;;14.43;;
5257;SDS011;2651;51.594;9.928;2022-12-13T06:47:01;18.13;;;13.32;;
5257;SDS011;2651;51.594;9.928;2022-12-13T06:48:11;19.27;;;13.35;;
5257;SDS011;2651;51.594;9.928;2022-12-13T06:49:18;14.73;;;12.43;;
5257;SDS011;2651;51.594;9.928;2022-12-13T06:50:22;18.65;;;14.68;;
5257;SDS011;2651;51.594;9.928;2022-12-13T06:51:24;22.08;;;14.75;;
5257;SDS011;2651;51.594;9.928;2022-12-13T06:52:34;16.70;;;13.90;;
5257;SDS011;2651;51.594;9.928;2022-12-13T06:53:36;18.60;;;13.18;;
5257;SDS011;2651;51.594;9.928;2022-12-13T06:54:39;19.58;;;13.35;;
5257;SDS011;2651;51.594;9.928;2022-12-13T06:55:42;20.42;;;13.60;;
5257;SDS011;2651;51.594;9.928;2022-12-13T06:56:44;18.98;;;13.40;;
5257;SDS011;2651;51.594;9.928;2022-12-13T06:57:45;15.82;;;12.07;;